Time;durP1;ratioP1;P1;durP2;ratioP2;P2;SDS_P1;SDS_P2;PMS_P1;PMS_P2;Temp;Humidity;BMP_temperature;BMP_pressure;BME280_temperature;BME280_humidity;BME280_pressure;Samples;Min_cycle;Max_cycle;Signal;HPM_P1;HPM_P2
2020/12/07 00:00:19;;;;;;;18.77;9.33;;;2.60;99.90;;;;;;4467534;28;659239;-59
2020/12/07 00:03:06;;;;;;;33.27;14.47;;;2.70;99.90;;;;;;4447255;28;657407;-59
2020/12/07 00:05:53;;;;;;;21.17;9.23;;;2.80;99.90;;;;;;4468665;28;659073;-58
2020/12/07 00:08:40;;;;;;;26.03;11.53;;;2.80;99.90;;;;;;4469823;28;657330;-59
2020/12/07 00:11:27;;;;;;;26.60;12.47;;;2.80;99.90;;;;;;4441804;28;658372;-58
2020/12/07 00:14:14;;;;;;;29.87;13.47;;;2.70;99.90;;;;;;4464173;28;657979;-58
2020/12/07 00:17:01;;;;;;;27.37;13.17;;;2.60;99.90;;;;;;4449892;28;657870;-61
2020/12/07 00:19:48;;;;;;;22.03;10.20;;;2.60;99.90;;;;;;4467438;28;657500;-59
2020/12/07 00:22:35;;;;;;;24.93;11.47;;;2.50;99.90;;;;;;4444229;28;657519;-60
2020/12/07 00:25:23;;;;;;;23.67;11.50;;;2.50;99.90;;;;;;4470090;28;657875;-58
2020/12/07 00:28:10;;;;;;;24.00;11.67;;;2.60;99.90;;;;;;4451302;28;657583;-61
2020/12/07 00:30:57;;;;;;;25.37;11.80;;;2.50;99.90;;;;;;4468801;28;659400;-58
2020/12/07 00:33:44;;;;;;;28.37;12.33;;;2.50;99.90;;;;;;4465767;28;658250;-59
2020/12/07 00:36:31;;;;;;;30.77;13.20;;;2.50;99.90;;;;;;4440675;28;657679;-59
2020/12/07 00:39:18;;;;;;;24.93;10.37;;;2.60;99.90;;;;;;4458657;28;659579;-59
2020/12/07 00:42:09;;;;;;;27.00;11.27;;;2.60;99.90;;;;;;4448214;28;658569;-61
2020/12/07 00:44:56;;;;;;;25.40;10.67;;;2.70;99.90;;;;;;4433115;28;658244;-59
2020/12/07 00:47:42;;;;;;;20.80;10.10;;;2.80;99.90;;;;;;4462835;28;658647;-59
2020/12/07 00:50:29;;;;;;;19.77;8.97;;;2.80;99.90;;;;;;4458957;28;658382;-58
2020/12/07 00:53:16;;;;;;;21.77;10.70;;;2.70;99.90;;;;;;4437309;28;656764;-59
2020/12/07 00:56:03;;;;;;;22.97;10.93;;;2.70;99.90;;;;;;4459085;28;659056;-58
2020/12/07 00:58:51;;;;;;;21.33;10.98;;;2.60;99.90;;;;;;4433180;28;657592;-60
2020/12/07 01:01:38;;;;;;;21.90;10.47;;;2.70;99.90;;;;;;4457533;28;659157;-59
2020/12/07 01:04:25;;;;;;;23.13;10.63;;;2.60;99.90;;;;;;4440938;28;658450;-60
2020/12/07 01:07:12;;;;;;;25.00;10.67;;;2.60;99.90;;;;;;4470200;28;658853;-59
2020/12/07 01:09:59;;;;;;;20.37;10.10;;;2.60;99.90;;;;;;4458014;28;658031;-58
2020/12/07 01:12:46;;;;;;;20.03;9.07;;;2.60;99.90;;;;;;4431950;28;658216;-59
2020/12/07 01:15:34;;;;;;;19.97;9.67;;;2.60;99.90;;;;;;4461557;28;657323;-58
2020/12/07 01:18:21;;;;;;;22.13;10.37;;;2.60;99.90;;;;;;4433302;28;656653;-59
2020/12/07 01:21:08;;;;;;;20.43;9.77;;;2.60;99.90;;;;;;4460361;28;659305;-59
2020/12/07 01:23:55;;;;;;;20.80;9.80;;;2.70;99.90;;;;;;4442732;28;656623;-61
2020/12/07 01:26:42;;;;;;;20.50;7.87;;;2.70;99.90;;;;;;4451832;28;656098;-58
2020/12/07 01:29:30;;;;;;;23.48;9.65;;;2.70;99.90;;;;;;4459225;28;656518;-58
2020/12/07 01:32:17;;;;;;;21.07;9.43;;;2.70;99.90;;;;;;4435823;28;656423;-59
2020/12/07 01:35:04;;;;;;;20.95;9.95;;;2.80;99.90;;;;;;4450973;28;656564;-58
2020/12/07 01:37:51;;;;;;;25.37;9.93;;;2.90;99.90;;;;;;4440810;28;658108;-59
2020/12/07 01:40:38;;;;;;;16.13;8.37;;;2.80;99.90;;;;;;4460425;28;657441;-59
2020/12/07 01:43:25;;;;;;;19.10;8.83;;;2.90;99.90;;;;;;4442972;28;656344;-60
2020/12/07 01:46:16;;;;;;;23.83;9.53;;;3.00;99.90;;;;;;4467600;28;656585;-59
2020/12/07 01:49:04;;;;;;;21.13;8.70;;;3.00;99.90;;;;;;4434563;28;657448;-59
2020/12/07 01:51:51;;;;;;;20.43;8.47;;;2.90;99.90;;;;;;4440704;28;656828;-59
2020/12/07 01:54:38;;;;;;;17.67;8.37;;;2.90;99.90;;;;;;4461417;28;657256;-58
2020/12/07 01:57:26;;;;;;;19.00;9.03;;;2.90;99.90;;;;;;4450656;28;657471;-60
2020/12/07 02:00:12;;;;;;;17.55;8.95;;;2.90;99.90;;;;;;4463306;28;657536;-59
2020/12/07 02:02:59;;;;;;;14.23;8.15;;;2.90;99.90;;;;;;4452008;28;657129;-59
2020/12/07 02:05:47;;;;;;;17.97;7.67;;;2.80;99.90;;;;;;4438406;28;656664;-60
2020/12/07 02:08:34;;;;;;;19.10;8.60;;;2.80;99.90;;;;;;4451813;28;657084;-59
2020/12/07 02:11:21;;;;;;;17.70;8.33;;;2.80;99.90;;;;;;4438851;28;656741;-59
2020/12/07 02:14:08;;;;;;;18.57;9.00;;;2.80;99.90;;;;;;4456854;28;656364;-58
2020/12/07 02:16:56;;;;;;;17.42;8.50;;;2.80;99.90;;;;;;4447186;28;656524;-60
2020/12/07 02:19:43;;;;;;;17.63;8.87;;;2.70;99.90;;;;;;4457487;28;657754;-59
2020/12/07 02:22:30;;;;;;;16.87;8.67;;;2.70;99.90;;;;;;4461976;28;656677;-59
2020/12/07 02:25:19;;;;;;;18.60;8.30;;;2.60;99.90;;;;;;4435147;28;657011;-59
2020/12/07 02:28:06;;;;;;;21.73;9.97;;;2.60;99.90;;;;;;4444901;28;656733;-59
2020/12/07 02:30:53;;;;;;;19.67;9.37;;;2.50;99.90;;;;;;4460431;28;656651;-58
2020/12/07 02:33:40;;;;;;;20.87;8.23;;;2.60;99.90;;;;;;4452173;28;656847;-60
2020/12/07 02:36:27;;;;;;;19.57;9.10;;;2.60;99.90;;;;;;4458904;28;657014;-59
2020/12/07 02:39:15;;;;;;;15.03;7.63;;;2.60;99.90;;;;;;4473966;28;656460;-59
2020/12/07 02:42:02;;;;;;;17.57;8.43;;;2.70;99.90;;;;;;4435736;28;658431;-58
2020/12/07 02:44:49;;;;;;;19.03;9.17;;;2.70;99.90;;;;;;4463082;28;657322;-59
2020/12/07 02:47:36;;;;;;;17.20;8.07;;;2.60;99.90;;;;;;4435629;28;656418;-59
2020/12/07 02:50:23;;;;;;;17.60;8.07;;;2.60;99.90;;;;;;4473220;28;656984;-58
2020/12/07 02:53:10;;;;;;;17.53;8.57;;;2.60;99.90;;;;;;4440244;28;656609;-61
2020/12/07 02:55:58;;;;;;;19.30;8.90;;;2.50;99.90;;;;;;4462039;28;656167;-59
2020/12/07 02:58:45;;;;;;;17.27;8.83;;;2.60;99.90;;;;;;4440181;28;656770;-60
2020/12/07 03:01:32;;;;;;;19.87;7.77;;;2.60;99.90;;;;;;4463272;28;658074;-58
2020/12/07 03:04:19;;;;;;;17.83;8.63;;;2.60;99.90;;;;;;4456517;28;656392;-59
2020/12/07 03:07:06;;;;;;;16.07;7.73;;;2.60;99.90;;;;;;4438890;28;656567;-59
2020/12/07 03:09:53;;;;;;;12.50;6.40;;;2.70;99.90;;;;;;4464778;28;657418;-59
2020/12/07 03:12:41;;;;;;;15.60;7.40;;;2.70;99.90;;;;;;4455423;28;656499;-61
2020/12/07 03:15:28;;;;;;;15.10;7.97;;;2.80;99.90;;;;;;4457587;28;657632;-59
2020/12/07 03:18:15;;;;;;;21.00;8.67;;;2.80;99.90;;;;;;4447751;28;656720;-61
2020/12/07 03:21:02;;;;;;;19.33;8.83;;;2.70;99.90;;;;;;4453258;28;656265;-59
2020/12/07 03:23:49;;;;;;;34.63;11.30;;;2.80;99.90;;;;;;4461508;28;657015;-59
2020/12/07 03:26:36;;;;;;;22.53;7.17;;;2.90;99.90;;;;;;4440313;28;657806;-60
2020/12/07 03:29:27;;;;;;;21.27;8.77;;;3.00;99.90;;;;;;4454864;28;658008;-59
2020/12/07 03:32:14;;;;;;;18.87;7.87;;;2.90;99.90;;;;;;4438064;28;657296;-58
2020/12/07 03:35:01;;;;;;;17.60;8.23;;;2.90;99.90;;;;;;4441929;28;656514;-60
2020/12/07 03:37:48;;;;;;;20.03;8.40;;;2.70;99.90;;;;;;4453313;28;658332;-59
2020/12/07 03:40:35;;;;;;;16.70;8.27;;;2.70;99.90;;;;;;4456801;28;656539;-61
2020/12/07 03:43:22;;;;;;;18.13;8.20;;;2.70;99.90;;;;;;4466308;28;656919;-59
2020/12/07 03:46:10;;;;;;;16.90;8.00;;;2.60;99.90;;;;;;4461285;28;656571;-58
2020/12/07 03:48:57;;;;;;;14.07;7.50;;;2.60;99.90;;;;;;4439266;28;657672;-59
2020/12/07 03:51:44;;;;;;;15.18;7.07;;;2.60;99.90;;;;;;4458351;28;657140;-58
2020/12/07 03:54:31;;;;;;;14.70;6.93;;;2.70;99.90;;;;;;4438622;28;656477;-58
2020/12/07 03:57:18;;;;;;;17.43;8.57;;;2.70;99.90;;;;;;4450405;28;657140;-58
2020/12/07 04:00:06;;;;;;;16.10;7.90;;;2.60;99.90;;;;;;4447929;28;656920;-61
2020/12/07 04:02:54;;;;;;;17.47;7.70;;;2.50;99.90;;;;;;4460975;28;657425;-59
2020/12/07 04:05:44;;;;;;;18.50;8.27;;;2.50;99.90;;;;;;4442107;28;657285;-59
2020/12/07 04:08:31;;;;;;;19.00;7.67;;;2.50;99.90;;;;;;4436398;28;656571;-59
2020/12/07 04:11:18;;;;;;;15.17;7.40;;;2.50;99.90;;;;;;4456123;28;658120;-59
2020/12/07 04:14:06;;;;;;;17.15;8.02;;;2.60;99.90;;;;;;4447045;28;656443;-61
2020/12/07 04:16:53;;;;;;;15.27;8.10;;;2.70;99.90;;;;;;4464659;28;657593;-58
2020/12/07 04:19:41;;;;;;;12.53;6.67;;;2.70;99.90;;;;;;4449969;28;656024;-58
2020/12/07 04:22:27;;;;;;;16.37;7.73;;;2.70;99.90;;;;;;4442158;28;657434;-58
2020/12/07 04:25:15;;;;;;;14.50;6.70;;;2.80;99.90;;;;;;4440726;28;657092;-58
2020/12/07 04:28:02;;;;;;;11.83;6.97;;;2.80;99.90;;;;;;4431702;28;656708;-59
2020/12/07 04:30:49;;;;;;;16.00;7.27;;;2.90;99.90;;;;;;4464401;28;657101;-59
2020/12/07 04:33:36;;;;;;;14.53;7.33;;;3.00;99.90;;;;;;4447417;28;656389;-59
2020/12/07 04:36:24;;;;;;;13.67;6.27;;;3.10;99.90;;;;;;4465628;28;657633;-59
2020/12/07 04:39:12;;;;;;;14.07;6.30;;;3.20;99.90;;;;;;4440900;28;656745;-58
2020/12/07 04:41:59;;;;;;;18.07;7.73;;;3.40;99.90;;;;;;4450081;28;657126;-59
2020/12/07 04:44:46;;;;;;;22.37;7.10;;;3.40;99.90;;;;;;4405675;28;656985;-60
2020/12/07 04:47:34;;;;;;;16.43;6.90;;;3.40;99.90;;;;;;4451868;28;657569;-59
2020/12/07 04:50:21;;;;;;;12.77;6.07;;;3.40;99.90;;;;;;4433860;28;656431;-59
2020/12/07 04:53:09;;;;;;;16.40;7.20;;;3.40;99.90;;;;;;4459663;28;657617;-58
2020/12/07 04:55:56;;;;;;;18.57;6.83;;;3.50;99.90;;;;;;4436148;28;657319;-59
2020/12/07 04:58:44;;;;;;;18.33;7.97;;;3.50;99.90;;;;;;4452659;28;657970;-59
2020/12/07 05:01:30;;;;;;;15.20;7.53;;;3.50;99.90;;;;;;4436747;28;656485;-61
2020/12/07 05:04:19;;;;;;;14.17;6.47;;;3.50;99.90;;;;;;4456408;28;657293;-58
2020/12/07 05:07:08;;;;;;;16.30;7.63;;;3.60;99.90;;;;;;4436910;28;657512;-61
2020/12/07 05:09:57;;;;;;;17.07;7.43;;;3.50;99.90;;;;;;4432909;28;656458;-60
2020/12/07 05:12:48;;;;;;;14.90;6.60;;;3.40;99.90;;;;;;4449323;28;656693;-58
2020/12/07 05:15:39;;;;;;;23.27;9.03;;;3.40;99.90;;;;;;4426727;28;656918;-61
2020/12/07 05:18:27;;;;;;;32.17;10.20;;;3.40;99.90;;;;;;4441020;28;656363;-59
2020/12/07 05:21:16;;;;;;;35.33;9.53;;;3.40;99.90;;;;;;4452863;28;658185;-58
2020/12/07 05:24:03;;;;;;;34.20;9.60;;;3.40;99.90;;;;;;4440328;28;657170;-59
2020/12/07 05:26:52;;;;;;;14.07;6.25;;;3.50;99.90;;;;;;4445189;28;656647;-60
2020/12/07 05:29:51;;;;;;;11.17;6.10;;;3.60;99.90;;;;;;4459725;28;656949;-58
2020/12/07 05:32:39;;;;;;;17.73;6.47;;;3.50;99.90;;;;;;4437582;28;657733;-59
2020/12/07 05:35:26;;;;;;;16.20;6.83;;;3.40;99.90;;;;;;4441543;28;656602;-60
2020/12/07 05:38:13;;;;;;;13.13;6.53;;;3.40;99.90;;;;;;4452213;28;658030;-58
2020/12/07 05:41:03;;;;;;;15.13;7.20;;;3.40;99.90;;;;;;4453742;28;656481;-59
2020/12/07 05:43:52;;;;;;;13.47;7.00;;;3.40;99.90;;;;;;4449734;28;656469;-61
2020/12/07 05:46:39;;;;;;;17.53;7.77;;;3.30;99.90;;;;;;4459632;28;657398;-58
2020/12/07 05:49:26;;;;;;;16.10;6.47;;;3.10;99.90;;;;;;4433033;28;656652;-59
2020/12/07 05:52:13;;;;;;;16.00;7.40;;;3.10;99.90;;;;;;4463503;28;657817;-58
2020/12/07 05:55:01;;;;;;;13.67;6.27;;;3.10;99.90;;;;;;4428629;28;656468;-60
2020/12/07 05:57:52;;;;;;;12.27;6.00;;;3.10;99.90;;;;;;4465301;28;657741;-58
2020/12/07 06:00:42;;;;;;;10.13;5.73;;;3.20;99.90;;;;;;4436033;28;657097;-59
2020/12/07 06:03:29;;;;;;;13.60;5.73;;;3.30;99.90;;;;;;4440164;28;658189;-58
2020/12/07 06:06:16;;;;;;;15.73;6.97;;;3.40;99.90;;;;;;4444329;28;656812;-60
2020/12/07 06:09:04;;;;;;;14.00;7.05;;;3.40;99.90;;;;;;4466523;28;657728;-59
2020/12/07 06:11:53;;;;;;;12.83;6.37;;;3.30;99.90;;;;;;4440751;28;656541;-58
2020/12/07 06:14:40;;;;;;;14.50;6.83;;;3.30;99.90;;;;;;4451734;28;656597;-61
2020/12/07 06:17:31;;;;;;;23.17;8.37;;;3.30;99.90;;;;;;4468030;28;655863;-59
2020/12/07 06:20:29;;;;;;;13.37;6.73;;;3.20;99.90;;;;;;4434650;28;657518;-58
2020/12/07 06:23:16;;;;;;;13.93;6.27;;;3.20;99.90;;;;;;4421464;28;656520;-60
2020/12/07 06:26:04;;;;;;;15.60;7.43;;;3.30;99.90;;;;;;4454936;28;657536;-58
2020/12/07 06:28:52;;;;;;;17.87;7.47;;;3.30;99.90;;;;;;4444193;28;658155;-59
2020/12/07 06:31:39;;;;;;;16.83;7.60;;;3.40;99.90;;;;;;4462428;28;658267;-58
2020/12/07 06:34:34;;;;;;;14.83;7.10;;;3.40;99.90;;;;;;4446304;28;658744;-60
2020/12/07 06:37:21;;;;;;;16.33;6.80;;;3.40;99.90;;;;;;4414919;28;656823;-60
2020/12/07 06:40:08;;;;;;;18.57;7.13;;;3.30;99.90;;;;;;4464940;28;657440;-60
2020/12/07 06:42:55;;;;;;;19.23;8.03;;;3.30;99.90;;;;;;4455715;28;658231;-60
2020/12/07 06:45:43;;;;;;;18.27;8.50;;;3.30;99.90;;;;;;4474169;28;656329;-59
2020/12/07 06:48:33;;;;;;;18.97;8.47;;;3.20;99.90;;;;;;4462372;28;657377;-59
2020/12/07 06:51:32;;;;;;;18.53;7.73;;;3.30;99.90;;;;;;4420134;28;657553;-61
2020/12/07 06:57:33;;;;;;;18.90;7.53;;;3.40;99.90;;;;;;4361726;27;658057;-59
2020/12/07 07:00:21;;;;;;;15.50;6.07;;;3.40;99.90;;;;;;4463444;27;656745;-61
2020/12/07 07:03:08;;;;;;;18.37;8.23;;;3.50;99.90;;;;;;4465833;28;658061;-59
2020/12/07 07:05:55;;;;;;;14.07;6.30;;;3.50;99.90;;;;;;4454890;27;656434;-62
2020/12/07 07:08:44;;;;;;;19.10;7.63;;;3.50;99.90;;;;;;4462225;28;656410;-59
2020/12/07 07:11:31;;;;;;;13.87;6.10;;;3.50;99.90;;;;;;4442605;28;657093;-60
2020/12/07 07:14:18;;;;;;;17.97;7.57;;;3.60;99.90;;;;;;4464285;27;658084;-60
2020/12/07 07:17:05;;;;;;;16.67;7.53;;;3.50;99.90;;;;;;4466847;28;657448;-59
2020/12/07 07:19:52;;;;;;;16.97;7.33;;;3.50;99.90;;;;;;4436758;28;658026;-59
2020/12/07 07:22:41;;;;;;;12.50;6.53;;;3.50;99.90;;;;;;4453573;28;657617;-60
2020/12/07 07:25:42;;;;;;;20.80;8.33;;;3.50;99.90;;;;;;4433798;28;657968;-59
2020/12/07 07:28:29;;;;;;;14.20;7.20;;;3.50;99.90;;;;;;4448001;28;657131;-60
2020/12/07 07:31:16;;;;;;;15.90;6.57;;;3.50;99.90;;;;;;4453064;27;656499;-59
2020/12/07 07:34:03;;;;;;;15.97;8.13;;;3.50;99.90;;;;;;4492734;27;658129;-59
2020/12/07 07:36:50;;;;;;;12.27;5.80;;;3.40;99.90;;;;;;4482007;27;656487;-61
2020/12/07 07:39:37;;;;;;;14.82;7.18;;;3.50;99.90;;;;;;4493430;27;657313;-59
2020/12/07 07:42:28;;;;;;;16.35;7.63;;;3.60;99.90;;;;;;4489106;27;656397;-59
2020/12/07 07:45:16;;;;;;;14.40;7.20;;;3.70;99.90;;;;;;4434016;27;656774;-61
2020/12/07 07:48:08;;;;;;;14.63;6.90;;;3.70;99.90;;;;;;4458366;28;657626;-59
2020/12/07 07:51:17;;;;;;;14.23;7.03;;;3.80;99.90;;;;;;4420930;28;656309;-61
2020/12/07 08:16:00;;;;;;;15.73;7.67;;;4.20;99.90;;;;;;4395567;28;658012;-60
2020/12/07 08:18:49;;;;;;;18.00;7.67;;;4.20;99.90;;;;;;4442945;28;657408;-59
2020/12/07 08:21:36;;;;;;;14.50;6.63;;;4.20;99.90;;;;;;4434280;28;656805;-60
2020/12/07 08:24:23;;;;;;;12.83;6.60;;;4.20;99.90;;;;;;4464638;28;657338;-60
2020/12/07 08:27:12;;;;;;;17.35;7.20;;;4.20;99.90;;;;;;4434603;28;657593;-60
2020/12/07 08:30:02;;;;;;;15.23;7.43;;;4.30;99.90;;;;;;4454939;28;656349;-59
2020/12/07 08:32:50;;;;;;;17.67;7.07;;;4.30;99.90;;;;;;4434935;28;657735;-59
2020/12/07 08:35:37;;;;;;;18.33;8.60;;;4.30;99.90;;;;;;4443376;28;656432;-60
2020/12/07 08:38:25;;;;;;;15.20;7.57;;;4.30;99.90;;;;;;4469265;28;657321;-59
2020/12/07 08:41:13;;;;;;;16.40;7.57;;;4.20;99.90;;;;;;4450092;28;657699;-60
2020/12/07 08:44:01;;;;;;;19.00;7.45;;;4.30;99.90;;;;;;4450370;28;657812;-61
2020/12/07 08:46:48;;;;;;;11.37;5.43;;;4.20;99.90;;;;;;4467982;28;656597;-59
2020/12/07 08:49:36;;;;;;;16.50;7.43;;;4.30;99.90;;;;;;4442911;28;656667;-61
2020/12/07 08:52:23;;;;;;;16.87;8.60;;;4.20;99.90;;;;;;4467502;28;657956;-60
2020/12/07 08:55:10;;;;;;;19.93;7.80;;;4.20;99.90;;;;;;4445651;28;656424;-60
2020/12/07 08:57:58;;;;;;;16.80;7.30;;;4.20;99.90;;;;;;4465868;28;657148;-59
2020/12/07 09:00:45;;;;;;;14.43;7.33;;;4.20;99.90;;;;;;4468765;28;656551;-60
2020/12/07 09:03:32;;;;;;;18.50;9.57;;;4.30;99.90;;;;;;4442665;28;656915;-60
2020/12/07 09:06:21;;;;;;;18.10;8.57;;;4.30;99.90;;;;;;4468535;28;656536;-59
2020/12/07 09:09:08;;;;;;;16.93;8.07;;;4.40;99.90;;;;;;4441213;28;657467;-59
2020/12/07 09:11:55;;;;;;;17.97;8.57;;;4.40;99.90;;;;;;4458821;28;657752;-61
2020/12/07 09:14:43;;;;;;;16.67;8.17;;;4.40;99.90;;;;;;4473165;28;656113;-60
2020/12/07 09:17:29;;;;;;;17.67;7.43;;;4.40;99.90;;;;;;4463418;28;656931;-59
2020/12/07 09:20:16;;;;;;;17.00;7.60;;;4.40;99.90;;;;;;4437819;28;657932;-59
2020/12/07 09:23:04;;;;;;;18.67;9.03;;;4.40;99.90;;;;;;4468421;28;658052;-59
2020/12/07 09:25:52;;;;;;;19.67;9.43;;;4.50;99.90;;;;;;4447009;28;656638;-61
2020/12/07 09:28:39;;;;;;;17.53;8.50;;;4.50;99.90;;;;;;4463447;28;658413;-60
2020/12/07 09:31:26;;;;;;;18.00;9.07;;;4.50;99.90;;;;;;4445534;28;656160;-60
2020/12/07 09:34:13;;;;;;;22.60;9.70;;;4.50;99.90;;;;;;4468923;28;657856;-59
2020/12/07 09:37:00;;;;;;;20.70;9.43;;;4.50;99.90;;;;;;4462406;28;656992;-59
2020/12/07 09:39:48;;;;;;;20.87;9.00;;;4.60;99.90;;;;;;4442072;28;656477;-60
2020/12/07 09:42:35;;;;;;;18.87;9.13;;;4.60;99.90;;;;;;4464462;28;656441;-59
2020/12/07 09:45:22;;;;;;;19.53;9.97;;;4.70;99.90;;;;;;4422007;28;657342;-59
2020/12/07 09:48:09;;;;;;;19.43;9.83;;;4.70;99.90;;;;;;4465541;28;658070;-59
2020/12/07 09:50:56;;;;;;;17.67;8.87;;;4.80;99.90;;;;;;4435988;28;656756;-61
2020/12/07 09:53:43;;;;;;;19.20;9.10;;;4.90;99.90;;;;;;4476495;28;657430;-59
2020/12/07 09:56:31;;;;;;;21.33;9.93;;;5.10;99.90;;;;;;4454268;28;656499;-60
2020/12/07 09:59:18;;;;;;;29.47;9.80;;;5.10;99.90;;;;;;4460541;28;658032;-59
2020/12/07 10:02:05;;;;;;;26.37;11.87;;;5.30;99.90;;;;;;4444617;28;657233;-61
2020/12/07 10:04:53;;;;;;;22.43;10.40;;;5.30;99.90;;;;;;4470569;28;657659;-61
2020/12/07 10:07:39;;;;;;;23.17;9.83;;;5.50;99.90;;;;;;4462696;28;657532;-59
2020/12/07 10:10:26;;;;;;;23.17;10.47;;;5.50;99.90;;;;;;4449757;28;656852;-60
2020/12/07 10:13:14;;;;;;;23.07;10.70;;;5.50;99.90;;;;;;4467525;28;658552;-60
2020/12/07 10:16:01;;;;;;;52.17;17.67;;;5.50;99.90;;;;;;4448591;28;657691;-59
2020/12/07 10:18:48;;;;;;;73.57;24.17;;;5.50;99.90;;;;;;4467304;28;658678;-59
2020/12/07 10:21:35;;;;;;;26.40;11.17;;;5.60;99.90;;;;;;4451021;28;658001;-60
2020/12/07 10:24:22;;;;;;;22.45;9.80;;;5.60;99.90;;;;;;4463614;28;657346;-59
2020/12/07 10:27:10;;;;;;;20.85;9.88;;;5.70;99.90;;;;;;4462271;28;657158;-59
2020/12/07 10:29:58;;;;;;;18.10;8.20;;;5.60;99.90;;;;;;4439173;28;657307;-59
2020/12/07 10:32:45;;;;;;;19.57;9.80;;;5.70;99.90;;;;;;4448266;28;657533;-60
2020/12/07 10:35:33;;;;;;;19.17;9.43;;;5.80;99.90;;;;;;4471283;28;657180;-60
2020/12/07 10:38:20;;;;;;;15.70;8.47;;;6.00;99.90;;;;;;4463907;28;659481;-59
2020/12/07 10:41:08;;;;;;;18.08;8.93;;;6.10;99.90;;;;;;4449481;28;657600;-59
2020/12/07 10:43:56;;;;;;;20.57;10.03;;;6.10;99.90;;;;;;4467668;28;657465;-61
2020/12/07 10:46:45;;;;;;;27.67;10.43;;;6.30;99.90;;;;;;4462848;28;659442;-59
2020/12/07 10:49:32;;;;;;;28.70;11.10;;;6.40;99.90;;;;;;4450994;28;657429;-60
2020/12/07 10:52:19;;;;;;;25.23;10.60;;;6.50;99.80;;;;;;4469849;28;659080;-60
2020/12/07 10:55:06;;;;;;;28.00;10.30;;;6.60;99.90;;;;;;4456795;27;657395;-60
2020/12/07 10:57:53;;;;;;;23.50;11.60;;;6.60;97.10;;;;;;4463090;28;658969;-60
2020/12/07 11:00:41;;;;;;;27.93;11.80;;;6.60;97.50;;;;;;4464968;28;657639;-61
2020/12/07 11:03:29;;;;;;;25.47;11.30;;;6.60;97.30;;;;;;4470949;28;658388;-60
2020/12/07 11:06:18;;;;;;;25.37;10.20;;;6.50;98.40;;;;;;4450677;28;658450;-60
2020/12/07 11:09:08;;;;;;;17.53;8.90;;;6.50;97.90;;;;;;4460605;28;658074;-61
2020/12/07 11:11:59;;;;;;;21.17;9.43;;;6.50;98.50;;;;;;4462388;28;656583;-62
2020/12/07 11:14:46;;;;;;;20.80;10.07;;;6.50;98.30;;;;;;4450482;28;656953;-60
2020/12/07 11:17:33;;;;;;;24.87;10.77;;;6.60;97.30;;;;;;4464431;28;659357;-60
2020/12/07 11:20:21;;;;;;;20.70;9.43;;;6.60;96.90;;;;;;4453760;28;658045;-61
2020/12/07 11:23:08;;;;;;;24.20;10.47;;;6.70;95.40;;;;;;4467385;28;657421;-59
2020/12/07 11:25:55;;;;;;;21.57;9.37;;;6.90;95.10;;;;;;4450084;28;657598;-61
2020/12/07 11:28:42;;;;;;;18.43;8.90;;;6.90;93.90;;;;;;4470355;28;657394;-60
2020/12/07 11:31:29;;;;;;;19.13;10.40;;;7.00;92.50;;;;;;4469069;28;657132;-59
2020/12/07 11:34:19;;;;;;;25.30;11.00;;;7.10;91.80;;;;;;4439138;28;657646;-61
2020/12/07 11:37:08;;;;;;;22.43;10.20;;;7.10;92.30;;;;;;4449845;28;659177;-60
2020/12/07 11:40:03;;;;;;;27.93;11.87;;;7.20;92.20;;;;;;4464119;28;657578;-61
2020/12/07 11:43:02;;;;;;;25.00;11.23;;;7.20;91.00;;;;;;4422964;28;658526;-61
2020/12/07 11:45:49;;;;;;;25.20;11.93;;;7.20;91.20;;;;;;4439073;28;657771;-60
2020/12/07 11:48:36;;;;;;;31.17;13.40;;;7.00;92.10;;;;;;4444170;28;657975;-60
2020/12/07 11:51:25;;;;;;;25.50;12.13;;;6.90;92.60;;;;;;4472489;28;658767;-59
2020/12/07 11:54:12;;;;;;;29.43;13.77;;;6.70;93.50;;;;;;4449181;27;657549;-60
2020/12/07 11:57:03;;;;;;;26.95;13.43;;;6.70;95.10;;;;;;4468912;28;657121;-59
2020/12/07 11:59:50;;;;;;;31.03;12.83;;;6.60;96.20;;;;;;4431268;28;657270;-61
2020/12/07 12:02:37;;;;;;;26.27;11.70;;;6.60;96.70;;;;;;4471090;28;658875;-60
2020/12/07 12:05:24;;;;;;;24.53;10.73;;;6.40;98.40;;;;;;4461439;28;657869;-60
2020/12/07 12:08:11;;;;;;;28.13;11.70;;;6.50;99.10;;;;;;4443499;28;658293;-59
2020/12/07 12:10:59;;;;;;;26.50;12.00;;;6.40;99.60;;;;;;4467485;28;657613;-59
2020/12/07 12:13:47;;;;;;;27.10;12.60;;;6.50;99.10;;;;;;4446432;28;657810;-59
2020/12/07 12:16:35;;;;;;;33.15;13.60;;;6.60;99.90;;;;;;4468749;28;658093;-60
2020/12/07 12:19:22;;;;;;;30.37;13.57;;;6.60;99.00;;;;;;4444376;28;658337;-60
2020/12/07 12:22:09;;;;;;;31.67;13.67;;;6.60;98.90;;;;;;4458965;28;658899;-59
2020/12/07 12:24:56;;;;;;;31.10;13.73;;;6.70;98.50;;;;;;4445787;28;657825;-61
2020/12/07 12:27:44;;;;;;;29.07;13.93;;;6.70;98.10;;;;;;4466716;28;658099;-60
2020/12/07 12:30:31;;;;;;;29.00;12.20;;;6.60;99.00;;;;;;4444160;28;657718;-61
2020/12/07 12:33:19;;;;;;;22.15;11.02;;;6.50;99.90;;;;;;4471868;28;658633;-60
2020/12/07 12:36:06;;;;;;;24.30;11.73;;;6.50;99.90;;;;;;4448780;28;658662;-61
2020/12/07 12:38:53;;;;;;;28.70;12.43;;;6.40;99.90;;;;;;4467507;28;658465;-59
2020/12/07 12:41:40;;;;;;;27.77;12.27;;;6.30;99.90;;;;;;4458061;28;657702;-61
2020/12/07 12:44:28;;;;;;;30.00;12.87;;;6.20;99.90;;;;;;4462144;28;657104;-59
2020/12/07 12:47:15;;;;;;;32.40;13.73;;;6.20;99.90;;;;;;4450513;28;659096;-61
2020/12/07 12:50:02;;;;;;;33.60;14.77;;;6.20;99.90;;;;;;4471558;28;657135;-59
2020/12/07 12:52:49;;;;;;;34.77;15.10;;;6.00;99.90;;;;;;4468370;28;657636;-60
2020/12/07 12:55:36;;;;;;;29.97;13.27;;;6.00;99.90;;;;;;4448625;28;658441;-59
2020/12/07 12:58:23;;;;;;;33.20;13.83;;;5.90;99.90;;;;;;4463786;28;659508;-60
2020/12/07 13:01:11;;;;;;;36.80;15.20;;;5.90;99.90;;;;;;4458518;28;657524;-60
2020/12/07 13:03:58;;;;;;;36.67;14.88;;;5.80;99.90;;;;;;4460512;28;659017;-59
2020/12/07 13:06:45;;;;;;;28.73;12.73;;;5.80;99.90;;;;;;4442240;28;657842;-60
2020/12/07 13:09:32;;;;;;;44.03;18.37;;;5.70;99.90;;;;;;4472269;28;658316;-59
2020/12/07 13:12:19;;;;;;;44.17;18.58;;;5.80;99.90;;;;;;4461464;28;658414;-59
2020/12/07 13:15:06;;;;;;;36.17;15.43;;;5.80;99.90;;;;;;4442240;28;658882;-59
2020/12/07 13:17:57;;;;;;;37.13;16.60;;;5.80;99.90;;;;;;4470775;28;658487;-60
2020/12/07 13:20:51;;;;;;;42.47;17.27;;;5.80;99.90;;;;;;4442588;28;658142;-59
2020/12/07 13:23:42;;;;;;;37.20;16.97;;;5.70;99.90;;;;;;4420954;28;657518;-60
2020/12/07 13:26:36;;;;;;;39.03;15.17;;;5.70;99.90;;;;;;4433455;28;657720;-59
2020/12/07 13:29:23;;;;;;;52.73;19.40;;;5.60;99.90;;;;;;4436766;28;657945;-59
2020/12/07 13:32:10;;;;;;;31.87;14.60;;;5.50;99.90;;;;;;4464526;28;657108;-60
2020/12/07 13:35:00;;;;;;;32.60;14.73;;;5.50;99.90;;;;;;4466826;28;657442;-59
2020/12/07 13:37:47;;;;;;;48.27;15.23;;;5.50;99.90;;;;;;4445548;28;657617;-60
2020/12/07 13:40:34;;;;;;;36.50;15.57;;;5.40;99.90;;;;;;4467377;28;658615;-59
2020/12/07 13:43:21;;;;;;;40.97;17.20;;;5.20;99.90;;;;;;4448511;28;657396;-61
2020/12/07 13:46:08;;;;;;;39.00;17.23;;;5.20;99.90;;;;;;4460406;28;658203;-60
2020/12/07 13:48:55;;;;;;;41.33;16.90;;;5.00;99.90;;;;;;4460294;28;657564;-59
2020/12/07 13:51:42;;;;;;;36.43;15.57;;;5.00;99.90;;;;;;4448903;28;657771;-60
2020/12/07 13:54:29;;;;;;;36.92;15.02;;;5.00;99.90;;;;;;4463008;28;658167;-60
2020/12/07 13:57:16;;;;;;;40.40;16.03;;;4.90;99.90;;;;;;4445855;28;658636;-60
2020/12/07 14:00:04;;;;;;;40.30;17.27;;;5.00;99.90;;;;;;4469280;28;657975;-59
2020/12/07 14:02:51;;;;;;;38.03;14.43;;;4.90;99.90;;;;;;4448083;28;659991;-60
2020/12/07 14:05:38;;;;;;;36.37;15.90;;;4.90;99.90;;;;;;4450026;28;659655;-60
2020/12/07 14:08:26;;;;;;;44.83;17.87;;;4.80;99.90;;;;;;4446718;28;658374;-61
2020/12/07 14:11:13;;;;;;;45.63;19.97;;;4.80;99.90;;;;;;4461261;28;657852;-60
2020/12/07 14:14:01;;;;;;;51.22;22.15;;;4.70;99.90;;;;;;4451901;28;657738;-61
2020/12/07 14:16:56;;;;;;;46.53;20.30;;;4.70;99.90;;;;;;4461904;28;658304;-59
2020/12/07 14:19:52;;;;;;;43.40;17.47;;;4.60;99.90;;;;;;4442387;28;658016;-59
2020/12/07 14:25:54;;;;;;;48.70;19.33;;;4.40;99.90;;;;;;4427311;28;657596;-60
2020/12/07 14:38:48;;;;;;;48.50;18.67;;;4.20;99.90;;;;;;4404942;28;658211;-59
2020/12/07 14:41:25;;;;;;;46.77;18.73;;;4.20;99.90;;;;;;4451263;28;658781;-59
2020/12/07 14:44:13;;;;;;;48.10;18.10;;;4.20;99.90;;;;;;4449991;28;658009;-59
2020/12/07 14:47:01;;;;;;;46.10;20.27;;;4.20;99.90;;;;;;4464268;28;657828;-59
2020/12/07 14:50:06;;;;;;;70.53;27.37;;;4.10;99.90;;;;;;4441572;28;658603;-59
2020/12/07 14:52:53;;;;;;;52.93;21.20;;;4.10;99.90;;;;;;4419414;28;659390;-59
2020/12/07 14:55:44;;;;;;;36.23;15.80;;;4.10;99.90;;;;;;4450009;28;658540;-60